Time,TemperatureF,DewpointF,PressureIn,WindDirection,WindDirectionDegrees,WindSpeedMPH,WindSpeedGustMPH,Humidity,HourlyPrecipIn,Conditions,Clouds,dailyrainin,SoftwareType,DateUTC
2013-09-15 00:11:00,48.1,44.0,30.05,SSE,157,0.0,0.0,84,0.00,,,0.00,weatherlink.com 1.10,2013-09-15 05:11:00,
2013-09-15 00:26:00,48.1,44.0,30.05,SSE,157,0.0,0.0,85,0.00,,,0.00,weatherlink.com 1.10,2013-09-15 05:26:00,
2013-09-15 00:41:00,48.6,44.0,30.05,SSE,157,0.0,0.0,84,0.00,,,0.00,weatherlink.com 1.10,2013-09-15 05:41:00,
2013-09-15 00:56:00,48.7,44.0,30.05,SSE,157,0.0,1.0,83,0.00,,,0.00,weatherlink.com 1.10,2013-09-15 05:56:00,
2013-09-15 01:11:00,48.3,44.0,30.05,SSE,158,0.0,1.0,84,0.00,,,0.00,weatherlink.com 1.10,2013-09-15 06:11:00,
2013-09-15 01:26:00,47.6,43.0,30.05,SSE,158,0.0,1.0,85,0.00,,,0.00,weatherlink.com 1.10,2013-09-15 06:26:00,
2013-09-15 01:41:00,47.0,43.0,30.05,SSE,158,0.0,0.0,86,0.00,,,0.00,weatherlink.com 1.10,2013-09-15 06:41:00,
2013-09-15 01:56:00,46.6,43.0,30.05,SSE,157,0.0,1.0,87,0.00,,,0.00,weatherlink.com 1.10,2013-09-15 06:56:00,
2013-09-15 02:11:00,46.7,43.0,30.05,SSE,158,0.0,0.0,87,0.00,,,0.00,weatherlink.com 1.10,2013-09-15 07:11:00,
2013-09-15 02:26:00,46.9,44.0,30.04,SSE,158,0.0,0.0,88,0.00,,,0.00,weatherlink.com 1.10,2013-09-15 07:26:00,
2013-09-15 02:41:00,47.0,43.0,30.04,SSE,158,0.0,0.0,87,0.00,,,0.00,weatherlink.com 1.10,2013-09-15 07:41:00,
2013-09-15 02:56:00,47.4,44.0,30.05,SSE,158,0.0,0.0,88,0.00,,,0.00,weatherlink.com 1.10,2013-09-15 07:56:00,
2013-09-15 03:11:00,47.4,44.0,30.05,SSE,158,0.0,0.0,89,0.00,,,0.00,weatherlink.com 1.10,2013-09-15 08:11:00,
2013-09-15 03:26:00,47.6,45.0,30.05,SSE,158,0.0,0.0,89,0.00,,,0.00,weatherlink.com 1.10,2013-09-15 08:26:00,
2013-09-15 03:41:00,47.9,45.0,30.05,SSE,157,0.0,0.0,90,0.00,,,0.00,weatherlink.com 1.10,2013-09-15 08:41:00,
2013-09-15 03:56:00,48.1,45.0,30.05,SSE,157,0.0,1.0,90,0.00,,,0.00,weatherlink.com 1.10,2013-09-15 08:56:00,
2013-09-15 04:11:00,48.6,46.0,30.06,SSE,157,0.0,0.0,91,0.00,,,0.00,weatherlink.com 1.10,2013-09-15 09:11:00,
2013-09-15 04:26:00,49.2,47.0,30.06,SSE,157,0.0,0.0,90,0.00,,,0.00,weatherlink.com 1.10,2013-09-15 09:26:00,
2013-09-15 04:41:00,49.6,47.0,30.06,SSE,157,0.0,0.0,90,0.00,,,0.00,weatherlink.com 1.10,2013-09-15 09:41:00,
2013-09-15 04:56:00,50.0,47.0,30.07,SSE,157,0.0,0.0,90,0.00,,,0.00,weatherlink.com 1.10,2013-09-15 09:56:00,
2013-09-15 05:11:00,50.2,47.0,30.07,SSE,158,0.0,0.0,90,0.00,,,0.00,weatherlink.com 1.10,2013-09-15 10:11:00,
2013-09-15 05:26:00,50.3,48.0,30.07,SSE,158,0.0,0.0,90,0.00,,,0.00,weatherlink.com 1.10,2013-09-15 10:26:00,
2013-09-15 05:41:00,50.0,47.0,30.07,SSE,157,0.0,2.0,89,0.00,,,0.00,weatherlink.com 1.10,2013-09-15 10:41:00,
2013-09-15 05:56:00,49.6,47.0,30.06,SSE,158,0.0,1.0,89,0.00,,,0.00,weatherlink.com 1.10,2013-09-15 10:56:00,
2013-09-15 06:11:00,49.4,46.0,30.07,SSE,158,0.0,2.0,89,0.00,,,0.00,weatherlink.com 1.10,2013-09-15 11:11:00,
2013-09-15 06:26:00,49.5,46.0,30.07,SSE,158,0.0,0.0,89,0.00,,,0.00,weatherlink.com 1.10,2013-09-15 11:26:00,
2013-09-15 06:41:00,49.3,46.0,30.07,SSE,158,0.0,0.0,89,0.00,,,0.00,weatherlink.com 1.10,2013-09-15 11:41:00,
2013-09-15 06:56:00,49.3,46.0,30.07,SSE,158,0.0,0.0,88,0.00,,,0.00,weatherlink.com 1.10,2013-09-15 11:56:00,
2013-09-15 07:11:00,49.4,46.0,30.08,SSE,157,0.0,0.0,88,0.00,,,0.00,weatherlink.com 1.10,2013-09-15 12:11:00,
2013-09-15 07:26:00,49.9,47.0,30.07,SSE,157,0.0,1.0,89,0.00,,,0.00,weatherlink.com 1.10,2013-09-15 12:26:00,
2013-09-15 07:42:00,50.8,48.0,30.07,SSE,157,0.0,0.0,90,0.00,,,0.00,weatherlink.com 1.10,2013-09-15 12:42:00,
2013-09-15 07:57:00,52.4,50.0,30.07,South,188,2.0,3.0,91,0.00,,,0.00,weatherlink.com 1.10,2013-09-15 12:57:00,
2013-09-15 08:12:00,53.9,51.0,30.06,SSW,192,1.0,4.0,89,0.00,,,0.00,weatherlink.com 1.10,2013-09-15 13:12:00,
2013-09-15 08:27:00,55.0,51.0,30.06,South,185,4.0,4.0,86,0.00,,,0.00,weatherlink.com 1.10,2013-09-15 13:27:00,
2013-09-15 08:42:00,56.2,52.0,30.05,South,180,1.0,6.0,84,0.00,,,0.00,weatherlink.com 1.10,2013-09-15 13:42:00,
2013-09-15 08:57:00,57.3,52.0,30.05,SSW,195,5.0,7.0,82,0.00,,,0.00,weatherlink.com 1.10,2013-09-15 13:57:00,
2013-09-15 09:12:00,59.3,52.0,30.06,SSW,198,2.0,8.0,78,0.00,,,0.00,weatherlink.com 1.10,2013-09-15 14:12:00,
2013-09-15 09:27:00,61.4,53.0,30.06,SSW,208,3.0,9.0,73,0.00,,,0.00,weatherlink.com 1.10,2013-09-15 14:27:00,
2013-09-15 09:42:00,61.0,52.0,30.06,SSW,198,2.0,10.0,72,0.00,,,0.00,weatherlink.com 1.10,2013-09-15 14:42:00,
2013-09-15 09:57:00,61.6,52.0,30.05,South,179,2.0,8.0,72,0.00,,,0.00,weatherlink.com 1.10,2013-09-15 14:57:00,
2013-09-15 10:12:00,63.4,53.0,30.05,South,180,3.0,8.0,68,0.00,,,0.00,weatherlink.com 1.10,2013-09-15 15:12:00,
2013-09-15 10:27:00,64.4,53.0,30.05,South,180,3.0,6.0,66,0.00,,,0.00,weatherlink.com 1.10,2013-09-15 15:27:00,
2013-09-15 10:42:00,65.1,52.0,30.04,SSW,201,5.0,10.0,63,0.00,,,0.00,weatherlink.com 1.10,2013-09-15 15:42:00,
2013-09-15 10:57:00,66.1,52.0,30.04,South,191,3.0,10.0,61,0.00,,,0.00,weatherlink.com 1.10,2013-09-15 15:57:00,
2013-09-15 11:12:00,67.6,53.0,30.04,SSW,209,3.0,9.0,59,0.00,,,0.00,weatherlink.com 1.10,2013-09-15 16:12:00,
2013-09-15 11:27:00,68.8,51.0,30.04,SSW,202,9.0,14.0,54,0.00,,,0.00,weatherlink.com 1.10,2013-09-15 16:27:00,
2013-09-15 11:42:00,68.7,51.0,30.04,SSW,213,2.0,10.0,53,0.00,,,0.00,weatherlink.com 1.10,2013-09-15 16:42:00,
2013-09-15 11:57:00,69.4,53.0,30.04,SSW,210,5.0,8.0,56,0.00,,,0.00,weatherlink.com 1.10,2013-09-15 16:57:00,
2013-09-15 12:12:00,71.3,53.0,30.04,SSW,206,4.0,12.0,53,0.00,,,0.00,weatherlink.com 1.10,2013-09-15 17:12:00,
2013-09-15 12:28:00,73.8,52.0,30.02,SSW,213,2.0,8.0,47,0.00,,,0.00,weatherlink.com 1.10,2013-09-15 17:28:00,
2013-09-15 12:43:00,74.4,52.0,30.02,SSW,201,3.0,11.0,45,0.00,,,0.00,weatherlink.com 1.10,2013-09-15 17:43:00,
2013-09-15 12:58:00,71.2,50.0,30.00,SW,227,1.0,9.0,48,0.00,,,0.00,weatherlink.com 1.10,2013-09-15 17:58:00,
2013-09-15 13:13:00,69.5,52.0,29.99,SSW,205,2.0,5.0,54,0.00,,,0.00,weatherlink.com 1.10,2013-09-15 18:13:00,
2013-09-15 13:28:00,69.5,52.0,29.99,SSW,202,4.0,6.0,55,0.00,,,0.00,weatherlink.com 1.10,2013-09-15 18:28:00,
2013-09-15 13:43:00,71.0,52.0,29.99,SW,223,1.0,8.0,52,0.00,,,0.00,weatherlink.com 1.10,2013-09-15 18:43:00,
2013-09-15 13:58:00,71.5,51.0,29.97,SSW,213,3.0,8.0,48,0.00,,,0.00,weatherlink.com 1.10,2013-09-15 18:58:00,
2013-09-15 14:13:00,71.0,51.0,29.98,SSW,199,2.0,7.0,49,0.00,,,0.00,weatherlink.com 1.10,2013-09-15 19:13:00,
2013-09-15 14:28:00,70.7,53.0,29.97,SSW,196,0.0,4.0,54,0.00,,,0.00,weatherlink.com 1.10,2013-09-15 19:28:00,
2013-09-15 14:43:00,70.1,54.0,29.98,SW,232,1.0,3.0,58,0.00,,,0.00,weatherlink.com 1.10,2013-09-15 19:43:00,
2013-09-15 14:58:00,69.8,57.0,29.98,West,265,0.0,4.0,63,0.00,,,0.00,weatherlink.com 1.10,2013-09-15 19:58:00,
2013-09-15 15:13:00,68.3,59.0,29.97,West,265,0.0,1.0,71,0.00,,,0.00,weatherlink.com 1.10,2013-09-15 20:13:00,
2013-09-15 15:28:00,67.9,57.0,29.98,West,266,0.0,2.0,68,0.00,,,0.00,weatherlink.com 1.10,2013-09-15 20:28:00,
2013-09-15 15:43:00,68.2,55.0,29.98,WSW,244,2.0,3.0,63,0.00,,,0.00,weatherlink.com 1.10,2013-09-15 20:43:00,
2013-09-15 15:58:00,68.4,54.0,29.99,SSW,204,0.0,2.0,61,0.00,,,0.00,weatherlink.com 1.10,2013-09-15 20:58:00,
2013-09-15 16:13:00,67.6,55.0,30.00,SW,229,0.0,2.0,64,0.00,,,0.00,weatherlink.com 1.10,2013-09-15 21:13:00,
2013-09-15 16:28:00,66.7,56.0,30.00,NW,309,0.0,1.0,68,0.00,,,0.00,weatherlink.com 1.10,2013-09-15 21:28:00,
2013-09-15 16:43:00,65.9,57.0,29.99,NW,309,0.0,1.0,74,0.00,,,0.00,weatherlink.com 1.10,2013-09-15 21:43:00,
2013-09-15 16:58:00,65.4,57.0,29.99,NW,309,0.0,0.0,74,0.00,,,0.00,weatherlink.com 1.10,2013-09-15 21:58:00,
2013-09-15 17:13:00,64.9,56.0,30.00,ENE,76,1.0,3.0,72,0.00,,,0.00,weatherlink.com 1.10,2013-09-15 22:13:00,
2013-09-15 17:28:00,64.9,57.0,29.99,ENE,75,0.0,2.0,76,0.00,,,0.00,weatherlink.com 1.10,2013-09-15 22:28:00,
2013-09-15 17:43:00,63.9,58.0,30.00,ENE,75,0.0,1.0,80,0.00,,,0.00,weatherlink.com 1.10,2013-09-15 22:43:00,
2013-09-15 17:58:00,63.3,57.0,30.01,ENE,75,0.0,2.0,80,0.00,,,0.00,weatherlink.com 1.10,2013-09-15 22:58:00,
2013-09-15 18:13:00,62.8,58.0,30.01,NW,305,0.0,3.0,83,0.00,,,0.00,weatherlink.com 1.10,2013-09-15 23:13:00,
2013-09-15 18:28:00,61.8,57.0,30.02,NW,311,0.0,1.0,85,0.00,,,0.00,weatherlink.com 1.10,2013-09-15 23:28:00,
2013-09-15 18:43:00,61.0,57.0,30.02,NNE,28,0.0,4.0,87,0.00,,,0.00,weatherlink.com 1.10,2013-09-15 23:43:00,
2013-09-15 18:58:00,60.7,58.0,30.03,North,9,0.0,2.0,89,0.00,,,0.00,weatherlink.com 1.10,2013-09-15 23:58:00,
2013-09-15 19:13:00,60.6,58.0,30.03,NNE,14,0.0,2.0,90,0.00,,,0.00,weatherlink.com 1.10,2013-09-16 00:13:00,
2013-09-15 19:28:00,60.4,58.0,30.04,North,360,0.0,2.0,91,0.00,,,0.00,weatherlink.com 1.10,2013-09-16 00:28:00,
2013-09-15 19:43:00,60.4,58.0,30.04,NNE,30,0.0,2.0,91,0.00,,,0.00,weatherlink.com 1.10,2013-09-16 00:43:00,
2013-09-15 19:58:00,60.4,58.0,30.05,East,82,1.0,5.0,91,0.00,,,0.00,weatherlink.com 1.10,2013-09-16 00:58:00,
2013-09-15 20:13:00,60.2,58.0,30.05,ENE,74,2.0,3.0,92,0.00,,,0.00,weatherlink.com 1.10,2013-09-16 01:13:00,
2013-09-15 20:28:00,59.9,58.0,30.05,ENE,65,1.0,2.0,92,0.00,,,0.00,weatherlink.com 1.10,2013-09-16 01:28:00,
2013-09-15 20:43:00,59.8,58.0,30.06,ENE,66,0.0,0.0,92,0.00,,,0.00,weatherlink.com 1.10,2013-09-16 01:43:00,
2013-09-15 20:58:00,59.8,58.0,30.07,ENE,64,0.0,1.0,92,0.00,,,0.00,weatherlink.com 1.10,2013-09-16 01:58:00,
2013-09-15 21:13:00,59.6,58.0,30.07,NNW,327,0.0,3.0,93,0.00,,,0.00,weatherlink.com 1.10,2013-09-16 02:13:00,
2013-09-15 21:28:00,59.5,58.0,30.07,North,5,0.0,3.0,93,0.00,,,0.00,weatherlink.com 1.10,2013-09-16 02:28:00,
2013-09-15 21:43:00,59.5,58.0,30.08,NNE,32,0.0,2.0,93,0.00,,,0.00,weatherlink.com 1.10,2013-09-16 02:43:00,
2013-09-15 21:58:00,59.4,57.0,30.08,NE,43,0.0,2.0,93,0.00,,,0.00,weatherlink.com 1.10,2013-09-16 02:58:00,
2013-09-15 22:13:00,59.4,57.0,30.09,NE,43,0.0,1.0,93,0.00,,,0.00,weatherlink.com 1.10,2013-09-16 03:13:00,
2013-09-15 22:28:00,59.5,58.0,30.09,NE,43,0.0,1.0,93,0.00,,,0.00,weatherlink.com 1.10,2013-09-16 03:28:00,
2013-09-15 22:43:00,59.5,58.0,30.09,NNE,26,0.0,2.0,93,0.00,,,0.00,weatherlink.com 1.10,2013-09-16 03:43:00,
2013-09-15 22:58:00,59.4,57.0,30.09,North,10,0.0,3.0,93,0.00,,,0.00,weatherlink.com 1.10,2013-09-16 03:58:00,
2013-09-15 23:13:00,59.2,57.0,30.09,NE,49,0.0,2.0,93,0.00,,,0.00,weatherlink.com 1.10,2013-09-16 04:13:00,
2013-09-15 23:28:00,59.0,57.0,30.10,NE,51,1.0,2.0,93,0.00,,,0.00,weatherlink.com 1.10,2013-09-16 04:28:00,
2013-09-15 23:43:00,58.8,57.0,30.11,ENE,72,1.0,3.0,93,0.00,,,0.00,weatherlink.com 1.10,2013-09-16 04:43:00,
2013-09-15 23:58:00,58.6,57.0,30.11,ENE,69,0.0,2.0,93,0.00,,,0.00,weatherlink.com 1.10,2013-09-16 04:58:00,